createdAt,value
2023-04-06T00:01:04.241Z,100071.69
2023-04-06T00:03:31.332Z,100063.75
2023-04-06T00:05:58.499Z,100072.69
2023-04-06T00:08:26.795Z,100071.03
2023-04-06T00:10:53.797Z,100068.38
2023-04-06T00:13:21.058Z,100056.94
2023-04-06T00:15:47.991Z,100061.41
2023-04-06T00:18:14.999Z,100058.75
2023-04-06T00:20:41.963Z,100063.38
2023-04-06T00:23:08.948Z,100060.06
2023-04-06T00:25:36.727Z,100067.34
2023-04-06T00:28:04.481Z,100065.00
2023-04-06T00:30:31.502Z,100065.00
2023-04-06T00:32:58.514Z,100065.00
2023-04-06T00:35:25.636Z,100063.16
2023-04-06T00:37:52.660Z,100061.34
2023-04-06T00:40:19.941Z,100055.06
2023-04-06T00:42:47.051Z,100054.09
2023-04-06T00:45:13.999Z,100052.13
2023-04-06T00:47:41.238Z,100047.81
2023-04-06T00:50:09.070Z,100052.97
2023-04-06T00:52:36.675Z,100045.19
2023-04-06T00:55:05.139Z,100043.53
2023-04-06T00:57:33.028Z,100041.53
2023-04-06T01:00:00.098Z,100047.00
2023-04-06T01:02:27.340Z,100038.22
2023-04-06T01:04:55.751Z,100038.22
2023-04-06T01:07:28.506Z,100038.22
2023-04-06T01:10:12.378Z,100034.88
2023-04-06T01:12:39.843Z,100030.56
2023-04-06T01:15:14.498Z,100031.56
2023-04-06T01:17:44.232Z,100029.53
2023-04-06T01:20:15.394Z,100027.03
2023-04-06T01:22:42.483Z,100021.91
2023-04-06T01:25:11.178Z,100017.75
2023-04-06T01:27:44.176Z,100021.38
2023-04-06T01:30:23.903Z,100018.06
2023-04-06T01:32:54.434Z,100015.88
2023-04-06T01:35:36.139Z,100010.03
2023-04-06T01:38:13.040Z,100010.91
2023-04-06T01:40:40.055Z,100010.91
2023-04-06T01:43:07.534Z,100004.91
2023-04-06T01:45:42.102Z,100010.19
2023-04-06T01:48:17.665Z,100011.50
2023-04-06T01:50:44.672Z,100013.78
2023-04-06T01:53:16.486Z,100006.28
2023-04-06T01:55:46.201Z,100010.91
2023-04-06T01:58:19.722Z,100007.59
2023-04-06T02:00:46.714Z,100002.44
2023-04-06T02:03:15.647Z,100006.06
2023-04-06T02:05:43.312Z,99999.94
2023-04-06T02:08:31.056Z,99999.94
2023-04-06T02:10:58.668Z,100006.38
2023-04-06T02:13:32.038Z,99995.09
2023-04-06T02:15:59.593Z,99997.75
2023-04-06T02:18:29.190Z,99995.41
2023-04-06T02:20:56.768Z,99996.41
2023-04-06T02:23:23.799Z,99994.75
2023-04-06T02:25:51.124Z,100001.97
2023-04-06T02:28:18.186Z,99992.38
2023-04-06T02:30:45.225Z,99995.03
2023-04-06T02:33:12.481Z,99993.38
2023-04-06T02:35:46.931Z,99989.06
2023-04-06T02:38:14.211Z,99996.19
2023-04-06T02:40:41.615Z,99985.75
2023-04-06T02:43:26.406Z,99983.41
2023-04-06T02:46:01.973Z,99986.38
2023-04-06T02:48:30.163Z,99983.72
2023-04-06T02:50:57.115Z,99982.06
2023-04-06T02:53:24.101Z,99978.72
2023-04-06T02:55:51.089Z,99983.19
2023-04-06T02:58:18.072Z,99977.06
2023-04-06T03:00:49.513Z,99975.56
2023-04-06T03:03:16.653Z,99974.88
2023-04-06T03:05:45.342Z,99976.84
2023-04-06T03:08:13.174Z,99972.69
2023-04-06T03:10:45.369Z,99971.03
2023-04-06T03:13:12.878Z,99972.16
2023-04-06T03:15:46.106Z,99981.88
2023-04-06T03:18:16.764Z,99977.75
2023-04-06T03:20:48.150Z,99984.16
2023-04-06T03:23:17.271Z,99979.16
2023-04-06T03:25:45.930Z,99986.28
2023-04-06T03:28:17.086Z,99983.78
2023-04-06T03:30:53.988Z,99979.63
2023-04-06T03:33:37.444Z,99989.66
2023-04-06T03:36:05.585Z,99999.53
2023-04-06T03:38:36.419Z,99991.75
2023-04-06T03:41:09.093Z,99992.06
2023-04-06T03:43:36.404Z,99987.91
2023-04-06T03:46:03.388Z,99990.69
2023-04-06T03:48:30.554Z,99992.81
2023-04-06T03:51:01.592Z,99984.50
2023-04-06T03:53:28.543Z,99983.78
2023-04-06T03:55:55.505Z,99995.34
2023-04-06T03:58:22.535Z,99983.28
2023-04-06T04:00:49.540Z,99991.34
2023-04-06T04:03:17.670Z,99985.66
2023-04-06T04:05:44.750Z,99992.75
2023-04-06T04:08:12.774Z,99998.19
2023-04-06T04:10:39.802Z,99995.56
2023-04-06T04:13:07.031Z,99998.31
2023-04-06T04:15:33.997Z,100006.41
2023-04-06T04:18:01.027Z,100011.97
2023-04-06T04:20:29.458Z,100015.59
2023-04-06T04:22:56.573Z,100031.88
2023-04-06T04:25:24.582Z,100026.03
2023-04-06T04:27:51.681Z,100028.16
2023-04-06T04:30:20.611Z,100027.75
2023-04-06T04:32:48.037Z,100031.53
2023-04-06T04:35:18.769Z,100024.03
2023-04-06T04:37:45.780Z,100028.63
2023-04-06T04:40:13.073Z,100037.63
2023-04-06T04:42:52.131Z,100030.03
2023-04-06T04:45:28.727Z,100039.91
2023-04-06T04:47:56.369Z,100035.19
2023-04-06T04:50:26.607Z,100038.50
2023-04-06T04:52:57.537Z,100038.97
2023-04-06T04:55:27.012Z,100037.16
2023-04-06T04:57:56.709Z,100043.41
2023-04-06T05:00:33.528Z,100043.84
2023-04-06T05:03:01.551Z,100040.38
2023-04-06T05:05:31.419Z,100042.31
2023-04-06T05:07:58.523Z,100045.78
2023-04-06T05:10:38.953Z,100047.56
2023-04-06T05:13:06.421Z,100050.22
2023-04-06T05:15:42.436Z,100046.91
2023-04-06T05:18:33.187Z,100053.81
2023-04-06T05:21:01.557Z,100038.84
2023-04-06T05:23:37.463Z,100048.56
2023-04-06T05:26:05.534Z,100049.53
2023-04-06T05:28:33.789Z,100045.78
2023-04-06T05:31:02.431Z,100051.03
2023-04-06T05:33:36.008Z,100050.06
2023-04-06T05:36:09.401Z,100049.13
2023-04-06T05:38:40.550Z,100049.94
2023-04-06T05:41:18.347Z,100052.69
2023-04-06T05:43:45.815Z,100065.78
2023-04-06T05:46:12.919Z,100058.44
2023-04-06T05:48:40.462Z,100059.66
2023-04-06T05:51:08.177Z,100072.84
2023-04-06T05:53:46.959Z,100060.78
2023-04-06T05:56:13.955Z,100066.06
2023-04-06T05:58:41.815Z,100060.78
2023-04-06T06:01:11.264Z,100071.19
2023-04-06T06:03:42.571Z,100063.44
2023-04-06T06:06:09.555Z,100064.94
2023-04-06T06:09:01.714Z,100066.59
2023-04-06T06:11:29.995Z,100068.16
2023-04-06T06:13:57.691Z,100068.25
2023-04-06T06:16:25.966Z,100065.75
2023-04-06T06:18:53.035Z,100069.13
2023-04-06T06:21:20.573Z,100066.88
2023-04-06T06:23:49.162Z,100074.38
2023-04-06T06:26:19.550Z,100077.44
2023-04-06T06:28:47.280Z,100078.25
2023-04-06T06:31:14.901Z,100072.69
2023-04-06T06:33:43.786Z,100078.78
2023-04-06T06:36:11.188Z,100083.63
2023-04-06T06:38:39.748Z,100070.69
2023-04-06T06:41:06.808Z,100076.25
2023-04-06T06:43:36.195Z,100079.81
2023-04-06T06:46:07.677Z,100078.13
2023-04-06T06:48:34.775Z,100080.91
2023-04-06T06:51:01.800Z,100083.63
2023-04-06T06:53:28.893Z,100084.56
2023-04-06T06:55:57.001Z,100086.63
2023-04-06T06:58:24.445Z,100080.75
2023-04-06T07:00:51.471Z,100080.69
2023-04-06T07:03:18.624Z,100082.91
2023-04-06T07:05:54.302Z,100094.56
2023-04-06T07:08:24.979Z,100083.25
2023-04-06T07:10:53.672Z,100084.19
2023-04-06T07:13:24.827Z,100086.09
2023-04-06T07:15:54.560Z,100077.09
2023-04-06T07:18:22.191Z,100081.50
2023-04-06T07:20:49.491Z,100085.59
2023-04-06T07:23:17.263Z,100087.31
2023-04-06T07:25:44.271Z,100088.53
2023-04-06T07:28:11.237Z,100090.78
2023-04-06T07:30:39.306Z,100088.72
2023-04-06T07:33:07.032Z,100081.69
2023-04-06T07:35:37.509Z,100078.75
2023-04-06T07:38:05.849Z,100082.97
2023-04-06T07:40:34.439Z,100084.69
2023-04-06T07:43:02.835Z,100085.59
2023-04-06T07:45:30.534Z,100081.97
2023-04-06T07:47:58.190Z,100079.94
2023-04-06T07:50:26.951Z,100084.28
2023-04-06T07:52:54.761Z,100084.16
2023-04-06T07:55:21.937Z,100091.81
2023-04-06T07:57:48.955Z,100079.94
2023-04-06T08:00:16.596Z,100081.94
2023-04-06T08:02:43.714Z,100079.66
2023-04-06T08:05:10.853Z,100074.53
2023-04-06T08:07:37.959Z,100086.16
2023-04-06T08:10:05.370Z,100084.34
2023-04-06T08:12:34.816Z,100086.50
2023-04-06T08:15:03.257Z,100090.16
2023-04-06T08:17:32.014Z,100087.50
2023-04-06T08:19:58.976Z,100086.19
2023-04-06T08:22:25.941Z,100075.44
2023-04-06T08:24:52.929Z,100076.06
2023-04-06T08:27:20.276Z,100084.03
2023-04-06T08:29:48.266Z,100082.34
2023-04-06T08:32:15.186Z,100083.16
2023-04-06T08:34:42.126Z,100087.94
2023-04-06T08:37:09.173Z,100078.66
2023-04-06T08:39:36.201Z,100097.38
2023-04-06T08:42:04.086Z,100082.22
2023-04-06T08:44:33.757Z,100081.19
2023-04-06T08:47:01.238Z,100083.63
2023-04-06T08:49:29.122Z,100080.13
2023-04-06T08:51:58.101Z,100079.44
2023-04-06T08:54:25.550Z,100087.56
2023-04-06T08:56:54.553Z,100082.34
2023-04-06T08:59:21.689Z,100080.66
2023-04-06T09:01:48.995Z,100076.28
2023-04-06T09:04:17.148Z,100079.38
2023-04-06T09:06:44.973Z,100084.81
2023-04-06T09:09:12.741Z,100081.91
2023-04-06T09:11:51.053Z,100079.03
2023-04-06T09:14:18.588Z,100082.56
2023-04-06T09:16:46.928Z,100090.31
2023-04-06T09:19:14.235Z,100081.41
2023-04-06T09:21:41.276Z,100084.00
2023-04-06T09:24:09.731Z,100073.44
2023-04-06T09:26:48.560Z,100077.88
2023-04-06T09:29:29.029Z,100073.47
2023-04-06T09:32:08.148Z,100080.53
2023-04-06T09:34:35.565Z,100074.47
2023-04-06T09:37:20.360Z,100070.16
2023-04-06T09:39:47.846Z,100067.03
2023-04-06T09:42:27.208Z,100075.25
2023-04-06T09:44:54.192Z,100072.47
2023-04-06T09:47:21.636Z,100070.69
2023-04-06T09:49:55.444Z,100073.91
2023-04-06T09:52:25.210Z,100067.81
2023-04-06T09:54:54.505Z,100064.00
2023-04-06T09:57:47.558Z,100062.88
2023-04-06T10:00:20.076Z,100058.41
2023-04-06T10:03:00.868Z,100063.88
2023-04-06T10:05:35.235Z,100062.81
2023-04-06T10:08:10.391Z,100056.78
2023-04-06T10:10:38.825Z,100058.28
2023-04-06T10:13:06.906Z,100062.09
2023-04-06T10:15:34.818Z,100053.91
2023-04-06T10:18:03.050Z,100053.38
2023-04-06T10:20:55.590Z,100054.13
2023-04-06T10:23:35.796Z,100047.56
2023-04-06T10:26:03.939Z,100049.88
2023-04-06T10:28:36.738Z,100044.34
2023-04-06T10:31:07.006Z,100046.66
2023-04-06T10:33:34.802Z,100046.06
2023-04-06T10:36:16.333Z,100055.19
2023-04-06T10:38:43.633Z,100045.53
2023-04-06T10:41:13.051Z,100043.13
2023-04-06T10:43:42.156Z,100046.00
2023-04-06T10:46:12.779Z,100042.34
2023-04-06T10:48:44.958Z,100042.78
2023-04-06T10:51:15.139Z,100039.88
2023-04-06T10:53:49.936Z,100036.63
2023-04-06T10:56:19.093Z,100037.66
2023-04-06T10:58:52.083Z,100047.41
2023-04-06T11:01:21.754Z,100040.41
2023-04-06T11:03:51.991Z,100045.75
2023-04-06T11:06:27.695Z,100034.78
2023-04-06T11:08:55.818Z,100034.72
2023-04-06T11:11:27.212Z,100035.69
2023-04-06T11:14:02.040Z,100027.50
2023-04-06T11:16:32.996Z,100022.16
2023-04-06T11:19:03.513Z,100023.97
2023-04-06T11:21:48.377Z,100022.81
2023-04-06T11:24:24.997Z,100013.69
2023-04-06T11:26:52.974Z,100017.09
2023-04-06T11:29:23.668Z,100012.34
2023-04-06T11:31:54.406Z,100008.53
2023-04-06T11:34:22.873Z,99998.84
2023-04-06T11:36:57.587Z,99998.38
2023-04-06T11:39:26.713Z,99991.66
2023-04-06T11:42:04.480Z,99985.69
2023-04-06T11:44:40.133Z,99994.00
2023-04-06T11:47:10.260Z,99988.78
2023-04-06T11:49:48.517Z,99979.88
2023-04-06T11:52:20.692Z,99979.13
2023-04-06T11:54:50.266Z,99981.41
2023-04-06T11:57:18.807Z,99972.97
2023-04-06T11:59:46.801Z,99969.50
2023-04-06T12:02:13.939Z,99970.81
2023-04-06T12:04:41.009Z,99974.03
2023-04-06T12:07:07.953Z,99968.75
2023-04-06T12:09:35.566Z,99962.66
2023-04-06T12:12:02.910Z,99964.38
2023-04-06T12:14:31.626Z,99964.28
2023-04-06T12:16:59.513Z,99961.59
2023-04-06T12:19:26.910Z,99956.38
2023-04-06T12:21:55.341Z,99951.97
2023-04-06T12:24:22.458Z,99962.47
2023-04-06T12:26:51.666Z,99954.31
2023-04-06T12:29:21.265Z,99954.59
2023-04-06T12:31:48.304Z,99957.59
2023-04-06T12:34:15.235Z,99955.75
2023-04-06T12:36:42.243Z,99946.84
2023-04-06T12:39:09.239Z,99950.59
2023-04-06T12:41:36.607Z,99950.91
2023-04-06T12:44:04.000Z,99928.16
2023-04-06T12:46:31.737Z,99927.22
2023-04-06T12:49:00.036Z,99931.97
2023-04-06T12:51:30.195Z,99932.31
2023-04-06T12:53:57.116Z,99927.56
2023-04-06T12:56:24.082Z,99932.75
2023-04-06T12:58:53.238Z,99924.34
2023-04-06T13:01:20.879Z,99934.38
2023-04-06T13:03:48.178Z,99921.91
2023-04-06T13:06:16.238Z,99919.88
2023-04-06T13:08:44.138Z,99931.13
2023-04-06T13:11:11.374Z,99927.56
2023-04-06T13:13:38.799Z,99920.28
2023-04-06T13:16:08.919Z,99920.53
2023-04-06T13:18:37.749Z,99920.09
2023-04-06T13:21:06.094Z,99918.91
2023-04-06T13:23:33.126Z,99917.38
2023-04-06T13:26:04.399Z,99922.50
2023-04-06T13:28:31.897Z,99912.66
2023-04-06T13:31:04.273Z,99922.50
2023-04-06T13:33:31.815Z,99911.84
2023-04-06T13:35:59.920Z,99908.53
2023-04-06T13:38:26.920Z,99906.75
2023-04-06T13:40:53.869Z,99900.53
2023-04-06T13:43:21.376Z,99907.91
2023-04-06T13:45:56.663Z,99900.06
2023-04-06T13:48:23.804Z,99898.06
2023-04-06T13:50:50.980Z,99892.72
2023-04-06T13:53:18.036Z,99896.81
2023-04-06T13:55:52.716Z,99897.81
2023-04-06T13:58:19.713Z,99894.56
2023-04-06T14:00:47.176Z,99896.94
2023-04-06T14:03:14.462Z,99903.31
2023-04-06T14:05:42.583Z,99898.50
2023-04-06T14:08:09.564Z,99896.03
2023-04-06T14:10:41.835Z,99899.50
2023-04-06T14:13:09.100Z,99895.53
2023-04-06T14:15:36.290Z,99894.94
2023-04-06T14:18:06.817Z,99903.03
2023-04-06T14:20:33.947Z,99892.59
2023-04-06T14:23:02.724Z,99898.53
2023-04-06T14:25:32.403Z,99895.00
2023-04-06T14:27:59.450Z,99900.22
2023-04-06T14:30:26.638Z,99891.28
2023-04-06T14:32:53.710Z,99891.38
2023-04-06T14:35:20.726Z,99888.78
2023-04-06T14:37:48.124Z,99887.91
2023-04-06T14:40:15.254Z,99885.94
2023-04-06T14:42:42.186Z,99890.06
2023-04-06T14:45:09.484Z,99890.78
2023-04-06T14:47:36.684Z,99878.06
2023-04-06T14:50:04.072Z,99880.84
2023-04-06T14:52:32.697Z,99889.44
2023-04-06T14:54:59.960Z,99889.28
2023-04-06T14:57:26.961Z,99883.97
2023-04-06T14:59:55.347Z,99878.88
2023-04-06T15:02:22.443Z,99878.72
2023-04-06T15:04:49.522Z,99871.56
2023-04-06T15:07:16.496Z,99870.34
2023-04-06T15:09:43.518Z,99876.19
2023-04-06T15:12:10.642Z,99869.16
2023-04-06T15:14:37.591Z,99873.50
2023-04-06T15:17:04.526Z,99873.50
2023-04-06T15:19:31.470Z,99874.53
2023-04-06T15:21:59.729Z,99872.50
2023-04-06T15:24:27.957Z,99876.91
2023-04-06T15:26:54.989Z,99871.97
2023-04-06T15:29:21.960Z,99871.38
2023-04-06T15:31:49.041Z,99870.19
2023-04-06T15:34:16.385Z,99865.03
2023-04-06T15:36:44.502Z,99868.22
2023-04-06T15:39:11.438Z,99870.72
2023-04-06T15:41:38.493Z,99871.25
2023-04-06T15:44:06.163Z,99871.31
2023-04-06T15:46:33.198Z,99861.41
2023-04-06T15:49:00.185Z,99872.22
2023-04-06T15:51:27.416Z,99866.69
2023-04-06T15:53:54.368Z,99866.47
2023-04-06T15:56:21.404Z,99877.06
2023-04-06T15:58:48.541Z,99866.78
2023-04-06T16:01:17.692Z,99866.00
2023-04-06T16:03:45.620Z,99862.31
2023-04-06T16:06:12.954Z,99864.00
2023-04-06T16:08:40.668Z,99856.41
2023-04-06T16:11:08.904Z,99858.09
2023-04-06T16:13:36.976Z,99864.72
2023-04-06T16:16:06.052Z,99850.28
2023-04-06T16:18:35.764Z,99860.63
2023-04-06T16:21:04.071Z,99858.97
2023-04-06T16:23:31.156Z,99855.69
2023-04-06T16:25:58.245Z,99855.50
2023-04-06T16:28:25.821Z,99856.78
2023-04-06T16:30:52.951Z,99859.03
2023-04-06T16:33:20.125Z,99860.31
2023-04-06T16:35:48.432Z,99861.56
2023-04-06T16:38:16.655Z,99863.84
2023-04-06T16:40:43.638Z,99861.59
2023-04-06T16:43:10.666Z,99852.91
2023-04-06T16:45:38.329Z,99863.28
2023-04-06T16:48:06.665Z,99859.34
2023-04-06T16:50:35.767Z,99858.75
2023-04-06T16:53:02.854Z,99855.47
2023-04-06T16:55:29.824Z,99860.22
2023-04-06T16:57:56.790Z,99857.53
2023-04-06T17:00:24.050Z,99854.47
2023-04-06T17:02:51.358Z,99860.25
2023-04-06T17:05:24.465Z,99872.03
2023-04-06T17:07:51.854Z,99866.06
2023-04-06T17:10:24.261Z,99869.34
2023-04-06T17:13:00.167Z,99869.56
2023-04-06T17:15:28.675Z,99871.00
2023-04-06T17:17:55.786Z,99878.22
2023-04-06T17:20:22.781Z,99877.41
2023-04-06T17:22:49.784Z,99878.47
2023-04-06T17:25:17.030Z,99880.53
2023-04-06T17:27:44.190Z,99883.00
2023-04-06T17:30:13.921Z,99878.91
2023-04-06T17:32:41.647Z,99882.41
2023-04-06T17:35:11.126Z,99887.34
2023-04-06T17:37:39.002Z,99884.47
2023-04-06T17:40:07.140Z,99899.69
2023-04-06T17:42:34.078Z,99880.75
2023-04-06T17:45:01.619Z,99887.53
2023-04-06T17:47:31.988Z,99893.72
2023-04-06T17:49:59.919Z,99886.50
2023-04-06T17:52:28.474Z,99890.59
2023-04-06T17:54:56.368Z,99885.66
2023-04-06T17:57:23.440Z,99897.78
2023-04-06T17:59:50.480Z,99902.94
2023-04-06T18:02:18.625Z,99911.78
2023-04-06T18:04:45.859Z,99909.09
2023-04-06T18:07:12.910Z,99909.47
2023-04-06T18:09:39.992Z,99926.16
2023-04-06T18:12:07.401Z,99923.25
2023-04-06T18:14:34.410Z,99925.03
2023-04-06T18:17:01.747Z,99923.97
2023-04-06T18:19:28.874Z,99928.28
2023-04-06T18:21:55.873Z,99938.56
2023-04-06T18:24:32.154Z,99939.97
2023-04-06T18:27:08.191Z,99941.38
2023-04-06T18:29:36.729Z,99940.13
2023-04-06T18:32:05.503Z,99943.59
2023-04-06T18:34:33.163Z,99945.81
2023-04-06T18:37:01.523Z,99947.25
2023-04-06T18:39:28.786Z,99944.13
2023-04-06T18:41:55.965Z,99946.19
2023-04-06T18:44:23.010Z,99951.09
2023-04-06T18:46:54.358Z,99951.69
2023-04-06T18:49:22.270Z,99950.22
2023-04-06T18:51:49.411Z,99957.63
2023-04-06T18:54:16.498Z,99954.50
2023-04-06T18:56:43.426Z,99957.38
2023-04-06T18:59:11.922Z,99968.47
2023-04-06T19:01:43.463Z,99960.81
2023-04-06T19:04:11.553Z,99971.09
2023-04-06T19:06:38.832Z,99971.25
2023-04-06T19:09:05.892Z,99968.34
2023-04-06T19:11:33.083Z,99973.44
2023-04-06T19:14:00.064Z,99973.84
2023-04-06T19:16:27.311Z,99981.19
2023-04-06T19:18:55.007Z,99980.56
2023-04-06T19:21:24.556Z,99978.28
2023-04-06T19:23:55.260Z,99979.91
2023-04-06T19:26:23.970Z,99979.44
2023-04-06T19:28:51.330Z,99976.13
2023-04-06T19:31:18.910Z,99972.81
2023-04-06T19:33:47.265Z,99974.03
2023-04-06T19:36:14.808Z,99984.28
2023-04-06T19:38:41.950Z,99976.84
2023-04-06T19:41:09.471Z,99981.72
2023-04-06T19:43:36.649Z,99982.31
2023-04-06T19:46:04.657Z,99980.00
2023-04-06T19:48:33.768Z,99977.91
2023-04-06T19:51:01.064Z,99983.63
2023-04-06T19:53:28.125Z,99983.19
2023-04-06T19:55:55.174Z,99986.84
2023-04-06T19:58:22.159Z,99985.41
2023-04-06T20:00:49.420Z,99989.44
2023-04-06T20:03:16.536Z,99986.53
2023-04-06T20:05:43.578Z,99981.72
2023-04-06T20:08:10.596Z,99977.13
2023-04-06T20:10:37.614Z,99984.84
2023-04-06T20:13:04.604Z,99986.44
2023-04-06T20:15:31.707Z,99990.50
2023-04-06T20:17:58.807Z,99989.22
2023-04-06T20:20:25.998Z,99993.28
2023-04-06T20:22:52.971Z,99988.31
2023-04-06T20:25:19.999Z,99986.03
2023-04-06T20:27:46.978Z,99987.38
2023-04-06T20:30:15.387Z,99983.41
2023-04-06T20:32:43.285Z,99982.78
2023-04-06T20:35:10.480Z,99978.66
2023-04-06T20:37:58.341Z,99976.34
2023-04-06T20:40:25.254Z,99976.34
2023-04-06T20:42:55.590Z,99980.84
2023-04-06T20:45:22.878Z,99973.69
2023-04-06T20:47:53.523Z,99970.38
2023-04-06T20:50:24.476Z,99964.97
2023-04-06T20:52:51.445Z,99967.34
2023-04-06T20:55:18.479Z,99964.41
2023-04-06T20:57:46.308Z,99962.13
2023-04-06T21:00:13.563Z,99964.16
2023-04-06T21:02:41.087Z,99964.69
2023-04-06T21:05:09.676Z,99965.88
2023-04-06T21:07:37.993Z,99962.13
2023-04-06T21:10:07.900Z,99956.97
2023-04-06T21:12:34.914Z,99963.66
2023-04-06T21:15:02.154Z,99958.03
2023-04-06T21:17:29.144Z,99964.38
2023-04-06T21:19:56.303Z,99955.75
2023-04-06T21:22:23.440Z,99958.63
2023-04-06T21:24:50.435Z,99956.28
2023-04-06T21:27:17.466Z,99941.50
2023-04-06T21:29:44.402Z,99942.88
2023-04-06T21:32:11.397Z,99949.28
2023-04-06T21:34:38.356Z,99942.66
2023-04-06T21:37:05.389Z,99942.56
2023-04-06T21:39:32.344Z,99950.44
2023-04-06T21:41:59.909Z,99928.03
2023-04-06T21:44:26.832Z,99924.22
2023-04-06T21:46:53.937Z,99925.63
2023-04-06T21:49:20.912Z,99921.34
2023-04-06T21:51:47.880Z,99923.75
2023-04-06T21:54:15.068Z,99920.78
2023-04-06T21:56:42.017Z,99922.31
2023-04-06T21:59:08.952Z,99913.50
2023-04-06T22:01:36.021Z,99911.22
2023-04-06T22:04:03.210Z,99903.53
2023-04-06T22:06:30.425Z,99901.41
2023-04-06T22:08:58.125Z,99893.31
2023-04-06T22:11:25.091Z,99894.69
2023-04-06T22:13:52.131Z,99889.69
2023-04-06T22:16:19.083Z,99890.72
2023-04-06T22:18:46.633Z,99892.91
2023-04-06T22:21:13.609Z,99890.78
2023-04-06T22:23:42.284Z,99886.16
2023-04-06T22:26:11.292Z,99881.03
2023-04-06T22:28:38.386Z,99883.56
2023-04-06T22:31:05.354Z,99881.41
2023-04-06T22:33:32.312Z,99882.59
2023-04-06T22:35:59.501Z,99881.09
2023-04-06T22:38:26.432Z,99880.81
2023-04-06T22:40:53.395Z,99879.31
2023-04-06T22:43:20.442Z,99871.72
2023-04-06T22:45:47.403Z,99877.03
2023-04-06T22:48:14.406Z,99870.22
2023-04-06T22:50:41.467Z,99869.94
2023-04-06T22:53:08.383Z,99866.78
2023-04-06T22:55:35.355Z,99872.44
2023-04-06T22:58:02.339Z,99864.16
2023-04-06T23:00:29.309Z,99854.53
2023-04-06T23:02:56.293Z,99858.34
2023-04-06T23:05:23.651Z,99852.41
2023-04-06T23:07:53.441Z,99849.91
2023-04-06T23:10:20.503Z,99855.56
2023-04-06T23:12:48.304Z,99853.91
2023-04-06T23:15:15.788Z,99851.44
2023-04-06T23:17:42.837Z,99848.28
2023-04-06T23:20:09.970Z,99844.97
2023-04-06T23:22:36.921Z,99844.34
2023-04-06T23:25:04.187Z,99841.69
2023-04-06T23:27:31.118Z,99842.69
2023-04-06T23:29:58.062Z,99832.06
2023-04-06T23:32:25.423Z,99833.22
2023-04-06T23:34:52.415Z,99827.06
2023-04-06T23:37:19.379Z,99834.41
2023-04-06T23:39:48.245Z,99810.69
2023-04-06T23:42:15.642Z,99823.28
2023-04-06T23:44:42.663Z,99829.97
2023-04-06T23:47:09.640Z,99828.13
2023-04-06T23:49:36.556Z,99829.13
2023-04-06T23:52:03.846Z,99811.38
2023-04-06T23:54:30.767Z,99815.84
2023-04-06T23:56:58.297Z,99816.19
2023-04-06T23:59:25.403Z,99823.50
